createdAt,value
2019-03-21T00:01:59.897Z,68.85
2019-03-21T00:04:26.068Z,67.99
2019-03-21T00:06:52.268Z,66.67
2019-03-21T00:09:18.475Z,67.41
2019-03-21T00:12:00.461Z,67.12
2019-03-21T00:14:33.184Z,67.17
2019-03-21T00:17:00.269Z,67.75
2019-03-21T00:19:27.597Z,67.25
2019-03-21T00:21:53.893Z,68.56
2019-03-21T00:24:19.968Z,67.55
2019-03-21T00:26:46.275Z,68.19
2019-03-21T00:29:12.480Z,68.32
2019-03-21T00:31:38.662Z,68.32
2019-03-21T00:34:04.967Z,68.34
2019-03-21T00:36:31.270Z,67.85
2019-03-21T00:38:57.558Z,67.85
2019-03-21T00:41:23.774Z,67.12
2019-03-21T00:43:49.842Z,67.52
2019-03-21T00:46:15.955Z,67.82
2019-03-21T00:48:42.161Z,67.74
2019-03-21T00:51:08.352Z,67.58
2019-03-21T00:53:34.446Z,67.48
2019-03-21T00:56:00.567Z,67.66
2019-03-21T00:58:26.644Z,66.38
2019-03-21T01:00:56.348Z,66.41
2019-03-21T01:03:22.500Z,66.68
2019-03-21T01:05:48.781Z,67.03
2019-03-21T01:08:14.853Z,67.61
2019-03-21T01:10:40.980Z,67.63
2019-03-21T01:13:07.072Z,68.02
2019-03-21T01:15:33.653Z,67.52
2019-03-21T01:17:59.862Z,67.51
2019-03-21T01:20:25.934Z,67.54
2019-03-21T01:22:52.137Z,68.19
2019-03-21T01:25:34.883Z,68.14
2019-03-21T01:28:00.946Z,68.08
2019-03-21T01:30:27.132Z,68.08
2019-03-21T01:32:53.312Z,68.38
2019-03-21T01:35:19.408Z,68.10
2019-03-21T01:37:45.499Z,68.03
2019-03-21T01:40:21.502Z,67.84
2019-03-21T01:42:47.600Z,67.94
2019-03-21T01:45:19.963Z,67.88
2019-03-21T01:47:46.148Z,67.92
2019-03-21T01:50:15.706Z,67.96
2019-03-21T01:52:41.763Z,67.97
2019-03-21T01:55:11.374Z,68.00
2019-03-21T01:57:37.776Z,67.66
2019-03-21T02:00:24.281Z,67.52
2019-03-21T02:02:52.762Z,67.28
2019-03-21T02:05:18.853Z,67.20
2019-03-21T02:07:44.936Z,67.36
2019-03-21T02:10:15.384Z,68.09
2019-03-21T02:12:41.579Z,67.87
2019-03-21T02:15:12.845Z,68.12
2019-03-21T02:17:39.110Z,68.01
2019-03-21T02:20:09.034Z,68.29
2019-03-21T02:22:35.242Z,68.18
2019-03-21T02:25:01.441Z,68.20
2019-03-21T02:27:27.512Z,68.56
2019-03-21T02:29:53.737Z,68.14
2019-03-21T02:32:19.831Z,68.24
2019-03-21T02:34:45.940Z,68.30
2019-03-21T02:37:13.068Z,68.18
2019-03-21T02:39:39.184Z,68.28
2019-03-21T02:42:05.302Z,68.03
2019-03-21T02:44:31.364Z,68.42
2019-03-21T02:46:57.532Z,68.31
2019-03-21T02:49:23.653Z,67.94
2019-03-21T02:51:49.855Z,67.98
2019-03-21T02:54:16.029Z,68.68
2019-03-21T02:56:42.215Z,67.96
2019-03-21T02:59:08.273Z,68.34
2019-03-21T03:01:34.378Z,68.22
2019-03-21T03:04:00.672Z,68.61
2019-03-21T03:06:26.843Z,68.95
2019-03-21T03:08:53.017Z,68.73
2019-03-21T03:11:20.941Z,68.92
2019-03-21T03:13:49.029Z,68.74
2019-03-21T03:16:15.318Z,68.38
2019-03-21T03:18:41.459Z,68.29
2019-03-21T03:21:07.633Z,69.13
2019-03-21T03:23:33.712Z,69.21
2019-03-21T03:25:59.896Z,69.66
2019-03-21T03:28:32.500Z,69.37
2019-03-21T03:30:58.670Z,69.44
2019-03-21T03:33:25.169Z,69.90
2019-03-21T03:35:51.441Z,69.70
2019-03-21T03:38:17.511Z,68.90
2019-03-21T03:41:01.492Z,69.77
2019-03-21T03:43:27.818Z,69.74
2019-03-21T03:45:53.866Z,69.65
2019-03-21T03:48:20.381Z,69.71
2019-03-21T03:50:46.453Z,69.66
2019-03-21T03:53:13.653Z,69.76
2019-03-21T03:55:39.757Z,68.98
2019-03-21T03:58:18.258Z,69.06
2019-03-21T04:00:44.597Z,68.82
2019-03-21T04:03:10.785Z,68.62
2019-03-21T04:05:36.966Z,68.87
2019-03-21T04:08:04.189Z,68.43
2019-03-21T04:10:38.914Z,69.10
2019-03-21T04:13:05.225Z,69.59
2019-03-21T04:15:31.669Z,69.55
2019-03-21T04:17:57.971Z,69.67
2019-03-21T04:20:48.780Z,69.59
2019-03-21T04:23:18.577Z,69.76
2019-03-21T04:25:55.582Z,68.84
2019-03-21T04:28:21.764Z,68.50
2019-03-21T04:30:48.044Z,68.77
2019-03-21T04:33:14.316Z,69.40
2019-03-21T04:35:40.699Z,69.42
2019-03-21T04:38:06.899Z,69.54
2019-03-21T04:40:32.992Z,70.21
2019-03-21T04:42:59.164Z,69.88
2019-03-21T04:45:25.654Z,70.07
2019-03-21T04:47:51.874Z,70.06
2019-03-21T04:50:21.046Z,70.18
2019-03-21T04:52:47.137Z,70.02
2019-03-21T04:55:14.741Z,70.29
2019-03-21T04:57:40.812Z,70.66
2019-03-21T05:00:15.916Z,70.29
2019-03-21T05:02:42.657Z,69.88
2019-03-21T05:05:10.366Z,70.30
2019-03-21T05:07:36.585Z,70.12
2019-03-21T05:10:06.504Z,70.67
2019-03-21T05:12:32.640Z,70.35
2019-03-21T05:14:58.739Z,70.71
2019-03-21T05:17:24.947Z,70.64
2019-03-21T05:19:51.086Z,70.61
2019-03-21T05:22:17.266Z,70.65
2019-03-21T05:24:43.338Z,70.33
2019-03-21T05:27:09.537Z,70.58
2019-03-21T05:29:35.619Z,70.64
2019-03-21T05:32:03.807Z,70.70
2019-03-21T05:34:29.783Z,71.01
2019-03-21T05:36:55.863Z,70.67
2019-03-21T05:39:22.022Z,70.17
2019-03-21T05:41:48.085Z,70.48
2019-03-21T05:44:26.878Z,69.93
2019-03-21T05:46:53.252Z,70.24
2019-03-21T05:49:19.447Z,70.09
2019-03-21T05:51:45.654Z,69.67
2019-03-21T05:54:11.835Z,69.95
2019-03-21T05:56:38.017Z,70.24
2019-03-21T05:59:04.132Z,70.21
2019-03-21T06:01:30.304Z,70.44
2019-03-21T06:03:56.405Z,70.64
2019-03-21T06:06:31.897Z,69.73
2019-03-21T06:08:57.969Z,70.08
2019-03-21T06:11:24.222Z,70.13
2019-03-21T06:13:50.421Z,70.40
2019-03-21T06:16:16.545Z,70.45
2019-03-21T06:18:52.245Z,69.92
2019-03-21T06:21:22.187Z,70.25
2019-03-21T06:24:01.024Z,70.12
2019-03-21T06:26:46.285Z,70.51
2019-03-21T06:29:12.550Z,70.43
2019-03-21T06:31:38.758Z,70.12
2019-03-21T06:34:04.971Z,70.39
2019-03-21T06:36:31.101Z,70.25
2019-03-21T06:38:57.289Z,69.65
2019-03-21T06:41:23.379Z,70.03
2019-03-21T06:43:49.510Z,70.04
2019-03-21T06:46:15.587Z,69.75
2019-03-21T06:48:41.679Z,69.75
2019-03-21T06:51:07.876Z,69.72
2019-03-21T06:53:34.072Z,69.86
2019-03-21T06:56:00.277Z,70.10
2019-03-21T06:58:26.483Z,70.32
2019-03-21T07:00:52.682Z,69.45
2019-03-21T07:03:18.872Z,69.11
2019-03-21T07:05:44.938Z,69.28
2019-03-21T07:08:11.021Z,69.09
2019-03-21T07:10:37.280Z,69.08
2019-03-21T07:13:03.695Z,69.12
2019-03-21T07:15:29.957Z,68.43
2019-03-21T07:17:56.068Z,68.95
2019-03-21T07:20:22.235Z,68.31
2019-03-21T07:22:48.542Z,68.96
2019-03-21T07:25:14.843Z,69.17
2019-03-21T07:27:40.963Z,68.73
2019-03-21T07:30:09.956Z,67.52
2019-03-21T07:32:36.159Z,67.94
2019-03-21T07:35:04.556Z,67.16
2019-03-21T07:37:30.635Z,66.13
2019-03-21T07:39:56.745Z,66.96
2019-03-21T07:42:22.935Z,65.27
2019-03-21T07:44:49.034Z,65.98
2019-03-21T07:47:15.233Z,65.99
2019-03-21T07:49:41.416Z,65.19
2019-03-21T07:52:07.520Z,66.09
2019-03-21T07:54:33.692Z,66.46
2019-03-21T07:57:00.100Z,65.71
2019-03-21T07:59:26.278Z,64.57
2019-03-21T08:01:52.485Z,63.30
2019-03-21T08:04:18.585Z,63.87
2019-03-21T08:06:44.906Z,63.39
2019-03-21T08:09:11.033Z,62.43
2019-03-21T08:11:37.110Z,62.27
2019-03-21T08:14:03.501Z,61.70
2019-03-21T08:16:29.644Z,62.20
2019-03-21T08:18:55.764Z,59.25
2019-03-21T08:21:21.856Z,59.26
2019-03-21T08:23:47.943Z,62.06
2019-03-21T08:26:14.131Z,61.05
2019-03-21T08:28:40.215Z,62.33
2019-03-21T08:31:10.144Z,60.98
2019-03-21T08:33:36.355Z,59.68
2019-03-21T08:36:02.655Z,60.94
2019-03-21T08:38:28.877Z,59.72
2019-03-21T08:40:55.068Z,61.23
2019-03-21T08:43:21.154Z,60.58
2019-03-21T08:45:47.252Z,60.75
2019-03-21T08:48:13.431Z,60.77
2019-03-21T08:50:39.643Z,60.65
2019-03-21T08:53:05.715Z,60.87
2019-03-21T08:55:31.816Z,60.70
2019-03-21T08:57:58.006Z,58.96
2019-03-21T09:00:33.758Z,57.94
2019-03-21T09:02:53.403Z,56.19
2019-03-21T09:05:19.595Z,57.99
2019-03-21T09:07:45.717Z,58.46
2019-03-21T09:10:12.017Z,56.25
2019-03-21T09:12:38.246Z,56.25
2019-03-21T09:15:08.296Z,56.54
2019-03-21T09:17:34.446Z,57.76
2019-03-21T09:20:00.755Z,57.79
2019-03-21T09:22:27.575Z,59.59
2019-03-21T09:24:53.881Z,57.74
2019-03-21T09:27:19.972Z,55.14
2019-03-21T09:29:53.422Z,55.27
2019-03-21T09:32:14.285Z,55.89
2019-03-21T09:34:41.478Z,56.20
2019-03-21T09:37:07.585Z,55.44
2019-03-21T09:39:33.700Z,57.38
2019-03-21T09:41:59.879Z,58.62
2019-03-21T09:44:27.714Z,55.98
2019-03-21T09:46:55.827Z,54.29
2019-03-21T09:49:21.929Z,54.56
2019-03-21T09:51:48.153Z,53.64
2019-03-21T09:54:14.242Z,53.77
2019-03-21T09:56:40.350Z,56.00
2019-03-21T09:59:06.523Z,56.52
2019-03-21T10:01:32.836Z,55.81
2019-03-21T10:03:58.931Z,54.82
2019-03-21T10:06:25.132Z,54.84
2019-03-21T10:08:51.245Z,56.83
2019-03-21T10:11:17.340Z,56.95
2019-03-21T10:13:43.552Z,54.76
2019-03-21T10:16:09.796Z,53.99
2019-03-21T10:18:35.997Z,55.47
2019-03-21T10:21:02.179Z,55.77
2019-03-21T10:23:28.316Z,55.19
2019-03-21T10:25:54.617Z,55.92
2019-03-21T10:28:20.947Z,55.88
2019-03-21T10:30:47.186Z,55.23
2019-03-21T10:33:13.406Z,53.72
2019-03-21T10:35:39.806Z,51.72
2019-03-21T10:38:06.425Z,51.26
2019-03-21T10:40:32.682Z,51.58
2019-03-21T10:42:59.081Z,52.85
2019-03-21T10:45:25.338Z,54.50
2019-03-21T10:47:51.557Z,55.71
2019-03-21T10:50:29.040Z,53.66
2019-03-21T10:52:55.740Z,53.44
2019-03-21T10:55:21.840Z,53.95
2019-03-21T10:57:47.933Z,53.93
2019-03-21T11:00:14.157Z,54.38
2019-03-21T11:02:40.368Z,53.01
2019-03-21T11:05:06.566Z,53.99
2019-03-21T11:07:32.661Z,53.40
2019-03-21T11:09:58.856Z,54.65
2019-03-21T11:12:25.067Z,52.58
2019-03-21T11:14:51.138Z,53.12
2019-03-21T11:17:17.458Z,54.29
2019-03-21T11:19:43.773Z,53.00
2019-03-21T11:22:09.863Z,54.78
2019-03-21T11:24:36.067Z,51.34
2019-03-21T11:27:02.275Z,50.89
2019-03-21T11:29:28.394Z,51.40
2019-03-21T11:31:54.601Z,50.20
2019-03-21T11:34:21.786Z,52.67
2019-03-21T11:36:47.942Z,49.92
2019-03-21T11:39:14.143Z,50.73
2019-03-21T11:41:40.349Z,50.85
2019-03-21T11:44:06.635Z,50.97
2019-03-21T11:46:32.698Z,52.13
2019-03-21T11:48:58.833Z,50.44
2019-03-21T11:51:24.933Z,51.76
2019-03-21T11:53:50.997Z,50.72
2019-03-21T11:56:17.701Z,51.39
2019-03-21T11:58:43.808Z,51.41
2019-03-21T12:01:10.031Z,51.09
2019-03-21T12:03:36.368Z,49.84
2019-03-21T12:06:02.693Z,47.90
2019-03-21T12:08:28.800Z,47.48
2019-03-21T12:10:54.919Z,45.13
2019-03-21T12:13:21.065Z,44.08
2019-03-21T12:15:47.191Z,47.48
2019-03-21T12:18:13.415Z,47.58
2019-03-21T12:20:39.558Z,50.43
2019-03-21T12:23:05.755Z,48.73
2019-03-21T12:25:31.884Z,50.79
2019-03-21T12:27:58.176Z,52.33
2019-03-21T12:30:28.090Z,50.08
2019-03-21T12:32:54.217Z,50.78
2019-03-21T12:35:20.308Z,47.47
2019-03-21T12:37:46.385Z,48.30
2019-03-21T12:40:12.593Z,48.98
2019-03-21T12:42:38.686Z,46.62
2019-03-21T12:45:08.703Z,44.93
2019-03-21T12:47:34.882Z,47.04
2019-03-21T12:50:05.309Z,48.95
2019-03-21T12:52:40.998Z,45.21
2019-03-21T12:54:59.585Z,42.13
2019-03-21T12:57:25.656Z,42.51
2019-03-21T12:59:51.755Z,45.36
2019-03-21T13:02:17.929Z,43.10
2019-03-21T13:04:44.260Z,41.26
2019-03-21T13:07:10.367Z,39.89
2019-03-21T13:09:36.593Z,42.57
2019-03-21T13:12:02.915Z,41.58
2019-03-21T13:14:29.472Z,42.04
2019-03-21T13:16:55.718Z,41.04
2019-03-21T13:19:21.907Z,40.34
2019-03-21T13:21:48.230Z,39.24
2019-03-21T13:24:17.223Z,39.95
2019-03-21T13:26:42.375Z,41.99
2019-03-21T13:29:08.591Z,42.50
2019-03-21T13:31:34.715Z,43.94
2019-03-21T13:34:00.841Z,43.97
2019-03-21T13:36:27.023Z,42.72
2019-03-21T13:38:54.217Z,42.81
2019-03-21T13:41:20.307Z,43.05
2019-03-21T13:43:46.413Z,43.22
2019-03-21T13:46:12.580Z,45.39
2019-03-21T13:48:39.740Z,44.67
2019-03-21T13:51:05.846Z,42.44
2019-03-21T13:53:33.022Z,45.04
2019-03-21T13:55:59.351Z,45.03
2019-03-21T13:58:25.491Z,45.79
2019-03-21T14:00:51.562Z,45.20
2019-03-21T14:03:25.008Z,44.09
2019-03-21T14:05:45.755Z,44.23
2019-03-21T14:08:11.898Z,43.60
2019-03-21T14:10:38.086Z,42.09
2019-03-21T14:13:04.184Z,41.71
2019-03-21T14:15:30.332Z,44.67
2019-03-21T14:17:56.634Z,44.05
2019-03-21T14:20:22.948Z,43.46
2019-03-21T14:22:49.063Z,42.14
2019-03-21T14:25:15.364Z,45.07
2019-03-21T14:27:41.689Z,43.98
2019-03-21T14:30:13.981Z,46.84
2019-03-21T14:32:40.191Z,43.47
2019-03-21T14:35:07.330Z,43.30
2019-03-21T14:37:33.446Z,42.89
2019-03-21T14:39:59.540Z,43.79
2019-03-21T14:42:25.711Z,43.44
2019-03-21T14:44:51.970Z,43.78
2019-03-21T14:47:18.173Z,43.92
2019-03-21T14:49:44.384Z,43.51
2019-03-21T14:52:10.579Z,43.16
2019-03-21T14:54:36.782Z,44.01
2019-03-21T14:57:02.988Z,41.13
2019-03-21T14:59:29.195Z,42.71
2019-03-21T15:01:55.341Z,43.39
2019-03-21T15:04:21.465Z,43.02
2019-03-21T15:06:47.548Z,44.21
2019-03-21T15:09:13.646Z,45.47
2019-03-21T15:11:39.860Z,46.09
2019-03-21T15:14:05.990Z,46.79
2019-03-21T15:16:32.101Z,47.10
2019-03-21T15:18:59.209Z,47.50
2019-03-21T15:21:25.421Z,49.68
2019-03-21T15:23:59.309Z,49.74
2019-03-21T15:26:19.704Z,48.19
2019-03-21T15:28:45.800Z,47.13
2019-03-21T15:31:11.973Z,47.22
2019-03-21T15:33:38.143Z,47.08
2019-03-21T15:36:04.458Z,46.22
2019-03-21T15:38:30.636Z,44.55
2019-03-21T15:40:56.758Z,47.53
2019-03-21T15:43:22.987Z,47.40
2019-03-21T15:45:49.176Z,46.96
2019-03-21T15:48:15.471Z,46.29
2019-03-21T15:50:42.777Z,45.40
2019-03-21T15:53:08.899Z,44.44
2019-03-21T15:55:35.202Z,44.53
2019-03-21T15:58:01.507Z,43.31
2019-03-21T16:00:36.359Z,46.34
2019-03-21T16:03:04.871Z,47.25
2019-03-21T16:05:31.192Z,45.45
2019-03-21T16:07:57.288Z,47.50
2019-03-21T16:10:23.358Z,46.91
2019-03-21T16:12:49.589Z,46.61
2019-03-21T16:15:15.814Z,44.99
2019-03-21T16:17:42.976Z,47.02
2019-03-21T16:20:09.317Z,48.47
2019-03-21T16:22:35.750Z,49.40
2019-03-21T16:25:04.394Z,48.17
2019-03-21T16:27:31.568Z,46.92
2019-03-21T16:29:57.762Z,46.20
2019-03-21T16:32:23.986Z,44.88
2019-03-21T16:34:50.079Z,45.36
2019-03-21T16:37:16.325Z,45.20
2019-03-21T16:39:42.419Z,45.47
2019-03-21T16:42:08.548Z,45.69
2019-03-21T16:44:34.739Z,45.71
2019-03-21T16:47:02.017Z,47.53
2019-03-21T16:49:28.158Z,46.70
2019-03-21T16:51:54.385Z,47.00
2019-03-21T16:54:20.723Z,47.43
2019-03-21T16:56:46.839Z,47.39
2019-03-21T16:59:13.067Z,48.45
2019-03-21T17:01:39.311Z,48.46
2019-03-21T17:04:05.502Z,48.40
2019-03-21T17:06:31.739Z,48.76
2019-03-21T17:08:57.805Z,48.15
2019-03-21T17:11:23.944Z,49.70
2019-03-21T17:13:50.044Z,50.18
2019-03-21T17:16:16.293Z,49.99
2019-03-21T17:18:42.547Z,49.61
2019-03-21T17:21:09.741Z,49.69
2019-03-21T17:23:37.129Z,52.34
2019-03-21T17:26:03.426Z,54.17
2019-03-21T17:28:29.656Z,55.12
2019-03-21T17:30:55.893Z,55.00
2019-03-21T17:33:22.028Z,55.86
2019-03-21T17:35:48.280Z,54.16
2019-03-21T17:38:14.606Z,54.13
2019-03-21T17:40:40.714Z,55.02
2019-03-21T17:43:06.921Z,55.43
2019-03-21T17:45:33.411Z,55.72
2019-03-21T17:47:59.487Z,54.69
2019-03-21T17:50:25.750Z,55.02
2019-03-21T17:52:51.958Z,54.77
2019-03-21T17:55:19.364Z,54.25
2019-03-21T17:57:45.649Z,54.62
2019-03-21T18:00:21.227Z,56.51
2019-03-21T18:02:47.648Z,57.52
2019-03-21T18:05:13.971Z,58.03
2019-03-21T18:07:40.087Z,58.72
2019-03-21T18:10:16.091Z,59.31
2019-03-21T18:12:42.303Z,59.74
2019-03-21T18:15:08.614Z,59.30
2019-03-21T18:17:34.760Z,59.39
2019-03-21T18:20:01.005Z,60.65
2019-03-21T18:22:27.322Z,60.58
2019-03-21T18:24:54.293Z,60.35
2019-03-21T18:27:20.582Z,60.59
2019-03-21T18:29:46.809Z,61.37
2019-03-21T18:32:12.949Z,61.73
2019-03-21T18:34:39.059Z,63.42
2019-03-21T18:37:05.193Z,63.23
2019-03-21T18:39:31.329Z,63.31
2019-03-21T18:41:57.559Z,62.40
2019-03-21T18:44:23.777Z,62.49
2019-03-21T18:46:49.905Z,62.55
2019-03-21T18:49:16.034Z,62.88
2019-03-21T18:51:42.329Z,63.72
2019-03-21T18:54:08.507Z,64.58
2019-03-21T18:56:34.620Z,64.58
2019-03-21T18:59:00.885Z,63.69
2019-03-21T19:01:27.123Z,63.41
2019-03-21T19:03:53.232Z,63.21
2019-03-21T19:06:19.378Z,62.57
2019-03-21T19:08:45.633Z,61.62
2019-03-21T19:11:11.961Z,62.15
2019-03-21T19:13:38.264Z,62.15
2019-03-21T19:16:05.373Z,62.48
2019-03-21T19:18:31.582Z,62.71
2019-03-21T19:20:57.814Z,63.85
2019-03-21T19:23:24.017Z,63.99
2019-03-21T19:25:50.239Z,65.24
2019-03-21T19:28:16.631Z,66.91
2019-03-21T19:30:42.764Z,66.22
2019-03-21T19:33:09.134Z,65.96
2019-03-21T19:35:35.442Z,67.12
2019-03-21T19:38:01.692Z,66.97
2019-03-21T19:40:28.000Z,67.14
2019-03-21T19:42:54.239Z,66.81
2019-03-21T19:45:20.596Z,66.53
2019-03-21T19:47:46.960Z,65.92
2019-03-21T19:50:17.752Z,65.60
2019-03-21T19:52:44.366Z,65.29
2019-03-21T19:55:10.932Z,65.07
2019-03-21T19:57:37.241Z,65.10
2019-03-21T20:00:15.751Z,65.08
2019-03-21T20:02:42.250Z,66.06
2019-03-21T20:05:09.670Z,68.55
2019-03-21T20:07:35.990Z,69.58
2019-03-21T20:10:03.615Z,68.44
2019-03-21T20:12:29.861Z,67.50
2019-03-21T20:14:56.329Z,67.21
2019-03-21T20:17:22.555Z,67.78
2019-03-21T20:19:48.794Z,68.42
2019-03-21T20:22:15.174Z,69.19
2019-03-21T20:24:41.306Z,69.84
2019-03-21T20:27:09.879Z,70.21
2019-03-21T20:29:36.256Z,69.75
2019-03-21T20:32:02.535Z,69.33
2019-03-21T20:34:28.758Z,69.48
2019-03-21T20:36:56.130Z,69.21
2019-03-21T20:39:22.450Z,69.25
2019-03-21T20:41:48.656Z,68.41
2019-03-21T20:44:15.623Z,67.83
2019-03-21T20:46:42.050Z,67.90
2019-03-21T20:49:09.460Z,68.48
2019-03-21T20:51:36.792Z,68.13
2019-03-21T20:54:03.113Z,68.17
2019-03-21T20:56:29.425Z,69.78
2019-03-21T20:58:55.775Z,69.53
2019-03-21T21:01:22.000Z,69.79
2019-03-21T21:03:48.337Z,69.29
2019-03-21T21:06:14.688Z,71.57
2019-03-21T21:08:40.988Z,71.89
2019-03-21T21:11:07.357Z,71.83
2019-03-21T21:13:33.469Z,70.85
2019-03-21T21:15:59.674Z,70.49
2019-03-21T21:18:26.022Z,69.52
2019-03-21T21:20:52.206Z,70.31
2019-03-21T21:23:18.515Z,70.21
2019-03-21T21:25:44.629Z,70.38
2019-03-21T21:28:10.837Z,69.95
2019-03-21T21:30:37.062Z,70.03
2019-03-21T21:33:03.260Z,69.57
2019-03-21T21:35:29.442Z,69.25
2019-03-21T21:37:55.500Z,69.20
2019-03-21T21:40:21.620Z,69.67
2019-03-21T21:42:47.843Z,70.64
2019-03-21T21:45:15.827Z,70.48
2019-03-21T21:47:42.137Z,70.93
2019-03-21T21:50:13.862Z,72.68
2019-03-21T21:52:42.304Z,73.88
2019-03-21T21:55:08.462Z,73.04
2019-03-21T21:57:34.808Z,72.67
2019-03-21T22:00:01.092Z,72.54
2019-03-21T22:02:27.498Z,72.65
2019-03-21T22:04:53.680Z,73.02
2019-03-21T22:07:19.878Z,73.11
2019-03-21T22:09:45.975Z,72.84
2019-03-21T22:12:12.068Z,72.91
2019-03-21T22:14:38.173Z,72.88
2019-03-21T22:17:04.369Z,72.30
2019-03-21T22:19:30.492Z,71.75
2019-03-21T22:21:56.741Z,71.11
2019-03-21T22:24:22.835Z,70.65
2019-03-21T22:26:48.951Z,71.26
2019-03-21T22:29:15.313Z,72.12
2019-03-21T22:31:41.519Z,72.30
2019-03-21T22:34:07.710Z,72.17
2019-03-21T22:36:33.817Z,72.49
2019-03-21T22:39:00.012Z,72.27
2019-03-21T22:41:26.098Z,72.09
2019-03-21T22:43:52.226Z,71.46
2019-03-21T22:46:18.305Z,70.75
2019-03-21T22:48:44.413Z,70.19
2019-03-21T22:51:10.509Z,71.01
2019-03-21T22:53:36.613Z,69.92
2019-03-21T22:56:02.904Z,70.00
2019-03-21T22:58:31.946Z,70.86
2019-03-21T23:00:57.292Z,69.91
2019-03-21T23:03:23.667Z,70.48
2019-03-21T23:05:49.866Z,70.26
2019-03-21T23:08:16.022Z,70.27
2019-03-21T23:10:44.937Z,71.10
2019-03-21T23:13:10.222Z,70.90
2019-03-21T23:15:36.305Z,70.92
2019-03-21T23:18:02.694Z,71.36
2019-03-21T23:20:28.797Z,72.10
2019-03-21T23:22:55.136Z,72.27
2019-03-21T23:25:21.531Z,72.83
2019-03-21T23:27:47.923Z,72.21
2019-03-21T23:30:18.123Z,71.26
2019-03-21T23:32:44.530Z,71.24
2019-03-21T23:35:11.048Z,71.12
2019-03-21T23:37:37.435Z,71.12
2019-03-21T23:40:11.879Z,72.85
2019-03-21T23:42:37.982Z,73.48
2019-03-21T23:45:06.059Z,73.98
2019-03-21T23:47:32.263Z,74.11
2019-03-21T23:49:58.467Z,75.01
2019-03-21T23:52:24.701Z,75.55
2019-03-21T23:54:50.806Z,74.56
2019-03-21T23:57:16.911Z,73.92
2019-03-21T23:59:42.998Z,73.65
